CW1035 Weather Reports


Display with metric or nautical units.
time (UTC)temp
F
wind
direction
speed
MPH
gust
MPH
rain 1hr
in
rain 24hr
in
rain mn
in
humidity
%
barometer
mb
20260504202155 70 75 2.0 6.0 0.00 0.00 0.00 50 1011.5
20260504201655 69 316 1.0 6.0 0.00 0.00 0.00 52 1011.4
20260504201155 69 281 2.0 7.0 0.00 0.00 0.00 52 1011.5
20260504200654 69 6 3.0 7.0 0.00 0.00 0.00 50 1011.5
20260504200155 69 316 3.0 7.0 0.00 0.00 0.00 54 1011.5
20260504195155 69 239 4.0 8.0 0.00 0.00 0.00 52 1011.5
20260504194154 69 330 3.0 7.0 0.00 0.00 0.00 54 1011.5
20260504193654 69 337 3.0 7.0 0.00 0.00 0.00 53 1011.5
20260504193154 69 272 5.0 7.0 0.00 0.00 0.00 55 1011.6
20260504191654 69 34 0.0 7.0 0.00 0.00 0.00 55 1011.6
20260504191154 69 340 3.0 7.0 0.00 0.00 0.00 54 1011.5
20260504190154 68 358 3.0 6.0 0.00 0.00 0.00 55 1011.5
20260504185653 68 302 4.0 6.0 0.00 0.00 0.00 56 1011.6
20260504185154 68 256 4.0 6.0 0.00 0.00 0.00 57 1011.6
20260504184653 68 306 3.0 4.0 0.00 0.00 0.00 58 1011.6
20260504182653 65 310 2.0 6.0 0.00 0.00 0.00 60 1011.7
20260504182153 65 281 2.0 6.0 0.00 0.00 0.00 60 1011.7
20260504181653 64 270 5.0 6.0 0.00 0.00 0.00 62 1011.8
20260504181153 64 247 3.0 7.0 0.00 0.00 0.00 62 1011.8
20260504180653 64 266 3.0 7.0 0.00 0.00 0.00 62 1011.9
20260504175653 64 308 4.0 6.0 0.00 0.00 0.00 62 1011.8
20260504175152 64 288 4.0 6.0 0.00 0.00 0.00 62 1011.7
20260504174652 64 271 2.0 7.0 0.00 0.00 0.00 62 1011.7
20260504174153 64 285 3.0 7.0 0.00 0.00 0.00 63 1011.7
20260504173652 64 279 3.0 6.0 0.00 0.00 0.00 64 1011.7
20260504173152 64 288 6.0 6.0 0.00 0.00 0.00 63 1011.7
20260504172652 63 296 0.0 6.0 0.00 0.00 0.00 64 1011.6
20260504172152 63 285 2.0 5.0 0.00 0.00 0.00 64 1011.6
20260504171152 63 266 0.0 5.0 0.00 0.00 0.00 65 1011.6
20260504170152 62 262 0.0 5.0 0.00 0.00 0.00 66 1011.7
20260504151150 61 260 1.0 4.0 0.00 0.00 0.00 66 1011.2
20260504150149 60 267 0.0 3.0 0.00 0.00 0.00 66 1011.1
20260504141148 61 267 0.0 0.0 0.00 0.00 0.00 66 1010.7
20260504140648 60 267 0.0 0.0 0.00 0.00 0.00 64 1010.8
20260504140148 59 267 0.0 0.0 0.00 0.00 0.00 63 1010.7
20260504130147 59 267 0.0 2.0 0.00 0.00 0.00 59 1010.3
20260504120146 59 347 0.0 0.0 0.00 0.00 0.00 62 1010.3
20260504110645 58 347 0.0 0.0 0.00 0.00 0.00 64 1010.4
20260504110145 58 347 0.0 0.0 0.00 0.00 0.00 64 1010.4
20260504100144 57 347 0.0 0.0 0.00 0.00 0.00 70 1010.4
20260504081642 59 307 0.0 1.0 0.00 0.00 0.00 64 1010.0
20260504081142 59 306 0.0 1.0 0.00 0.00 0.00 62 1010.0
20260504080142 59 307 0.0 0.0 0.00 0.00 0.00 61 1010.0
20260504070211 64 263 0.0 0.0 0.00 0.00 0.00 50 1010.2
20260504060140 63 243 2.0 5.0 0.00 0.00 0.00 52 1010.2
20260504050639 66 269 3.0 4.0 0.00 0.00 0.00 44 1010.5
20260504050139 67 259 2.0 4.0 0.00 0.00 0.00 45 1010.5
20260504045638 67 268 1.0 4.0 0.00 0.00 0.00 45 1010.4
20260504045139 67 259 2.0 4.0 0.00 0.00 0.00 45 1010.4
20260504044639 66 255 3.0 4.0 0.00 0.00 0.00 45 1010.3
20260504044138 66 253 1.0 4.0 0.00 0.00 0.00 47 1010.3
20260504043638 66 273 4.0 4.0 0.00 0.00 0.00 47 1010.4
20260504043138 67 252 2.0 4.0 0.00 0.00 0.00 47 1010.4
20260504042638 67 278 2.0 4.0 0.00 0.00 0.00 45 1010.3
20260504041638 67 259 0.0 0.0 0.00 0.00 0.00 45 1010.3
20260504041138 68 257 0.0 3.0 0.00 0.00 0.00 46 1010.4
20260504040637 68 257 0.0 5.0 0.00 0.00 0.00 45 1010.4
20260504040138 68 264 1.0 5.0 0.00 0.00 0.00 45 1010.4
20260504035637 68 255 3.0 3.0 0.00 0.00 0.00 44 1010.3
20260504035137 68 264 2.0 3.0 0.00 0.00 0.00 43 1010.3
20260504034637 69 272 0.0 3.0 0.00 0.00 0.00 43 1010.3
20260504034137 69 262 0.0 3.0 0.00 0.00 0.00 42 1010.2
20260504033637 69 277 0.0 0.0 0.00 0.00 0.00 42 1010.2
20260504033137 70 271 0.0 2.0 0.00 0.00 0.00 41 1010.2
20260504032637 70 264 0.0 2.0 0.00 0.00 0.00 41 1010.2
20260504031637 71 293 2.0 3.0 0.00 0.00 0.00 41 1010.2
20260504030637 72 256 0.0 2.0 0.00 0.00 0.00 39 1010.2
20260504030207 72 255 1.0 3.0 0.00 0.00 0.00 38 1010.2
20260504025707 73 256 0.0 3.0 0.00 0.00 0.00 37 1010.2
20260504025136 73 269 0.0 4.0 0.00 0.00 0.00 37 1010.2
20260504024636 73 281 0.0 4.0 0.00 0.00 0.00 38 1010.3
20260504024207 74 272 0.0 5.0 0.00 0.00 0.00 38 1010.4
20260504023706 74 310 3.0 5.0 0.00 0.00 0.00 38 1010.4
20260504023207 74 278 0.0 4.0 0.00 0.00 0.00 38 1010.4
20260504022636 74 259 0.0 4.0 0.00 0.00 0.00 38 1010.5
20260504022206 74 278 1.0 5.0 0.00 0.00 0.00 37 1010.5
20260504021136 74 281 1.0 7.0 0.00 0.00 0.00 38 1010.5
20260504020636 74 283 3.0 6.0 0.00 0.00 0.00 38 1010.6
20260504015705 75 273 3.0 7.0 0.00 0.00 0.00 40 1010.7
20260504015206 74 290 3.0 7.0 0.00 0.00 0.00 39 1010.8
20260504014705 75 279 3.0 7.0 0.00 0.00 0.00 39 1010.8
20260504014205 75 278 3.0 8.0 0.00 0.00 0.00 40 1010.9
20260504013705 74 269 2.0 8.0 0.00 0.00 0.00 40 1010.9
20260504013205 74 311 1.0 7.0 0.00 0.00 0.00 41 1010.8
20260504012635 74 290 3.0 7.0 0.00 0.00 0.00 41 1010.9
20260504012205 74 248 3.0 7.0 0.00 0.00 0.00 41 1011.0
20260504011705 73 263 0.0 6.0 0.00 0.00 0.00 42 1011.0
20260504011134 73 282 4.0 8.0 0.00 0.00 0.00 42 1011.1
20260504010634 73 285 2.0 8.0 0.00 0.00 0.00 42 1011.1
20260504010205 73 297 1.0 8.0 0.00 0.00 0.00 42 1011.2
20260504005704 74 351 4.0 7.0 0.00 0.00 0.00 42 1011.3
20260504004634 75 17 6.0 6.0 0.00 0.00 0.00 41 1011.4
20260504003704 75 328 4.0 8.0 0.00 0.00 0.00 40 1011.6
20260504003204 75 293 1.0 8.0 0.00 0.00 0.00 42 1011.6
20260504002704 74 281 0.0 9.0 0.00 0.00 0.00 43 1011.7
20260504001704 75 311 8.0 11.0 0.00 0.00 0.00 41 1011.6
20260504001203 75 240 0.0 11.0 0.00 0.00 0.00 41 1011.6
20260504000703 75 285 6.0 7.0 0.00 0.00 0.00 40 1011.7
20260504000204 74 257 0.0 11.0 0.00 0.00 0.00 41 1011.8
20260503235703 74 306 1.0 11.0 0.00 0.00 0.00 39 1011.8
20260503235134 74 282 6.0 8.0 0.00 0.00 0.00 39 1011.9
20260503234703 74 255 5.0 9.0 0.00 0.00 0.00 40 1011.9
20260503234203 74 296 3.0 9.0 0.00 0.00 0.00 40 1012.0
20260503233703 74 309 6.0 10.0 0.00 0.00 0.00 40 1012.0
20260503233203 74 321 6.0 10.0 0.00 0.00 0.00 40 1012.1
20260503232703 73 270 3.0 11.0 0.00 0.00 0.00 42 1012.1
20260503232202 73 264 6.0 11.0 0.00 0.00 0.00 41 1012.3
20260503231702 73 277 1.0 8.0 0.00 0.00 0.00 41 1012.3
20260503231202 74 276 7.0 9.0 0.00 0.00 0.00 41 1012.4
20260503230702 73 246 3.0 12.0 0.00 0.00 0.00 42 1012.4
20260503230203 73 257 3.0 12.0 0.00 0.00 0.00 41 1012.5
20260503225703 74 278 6.0 11.0 0.00 0.00 0.00 40 1012.5
20260503225203 74 338 0.0 11.0 0.00 0.00 0.00 40 1012.6
20260503224202 73 277 1.0 10.0 0.00 0.00 0.00 40 1012.7
20260503223702 73 302 3.0 10.0 0.00 0.00 0.00 40 1012.8
20260503223202 73 291 8.0 9.0 0.00 0.00 0.00 39 1012.9
20260503222702 73 240 4.0 9.0 0.00 0.00 0.00 40 1013.0
20260503222201 72 319 4.0 10.0 0.00 0.00 0.00 41 1013.0
20260503221201 72 37 4.0 9.0 0.00 0.00 0.00 43 1013.2
20260503220701 72 271 4.0 8.0 0.00 0.00 0.00 45 1013.3
20260503220202 71 315 1.0 10.0 0.00 0.00 0.00 46 1013.3
20260503215701 71 292 4.0 10.0 0.00 0.00 0.00 46 1013.3
20260503215201 71 292 5.0 10.0 0.00 0.00 0.00 46 1013.4
20260503214701 71 272 9.0 11.0 0.00 0.00 0.00 46 1013.4
20260503213200 71 290 5.0 9.0 0.00 0.00 0.00 51 1013.6
20260503212201 70 274 3.0 11.0 0.00 0.00 0.00 54 1013.7
20260503211700 70 300 3.0 11.0 0.00 0.00 0.00 54 1013.7
20260503211200 69 264 3.0 10.0 0.00 0.00 0.00 55 1013.7
20260503210700 69 280 4.0 8.0 0.00 0.00 0.00 56 1013.7
20260503210200 69 255 4.0 10.0 0.00 0.00 0.00 56 1013.9
20260503205700 69 288 3.0 10.0 0.00 0.00 0.00 55 1013.9
20260503204700 69 284 2.0 9.0 0.00 0.00 0.00 55 1013.9
20260503204200 69 335 2.0 9.0 0.00 0.00 0.00 54 1014.0
20260503203700 68 308 7.0 8.0 0.00 0.00 0.00 54 1013.9
20260503203200 68 340 1.0 8.0 0.00 0.00 0.00 53 1014.0